Weather at Taiyuan Wusu Airport

Public forecast

Using degrees Celsius for public forecast. Weather courtesy of forecast.io.

Current aviation weather report (METAR) for Taiyuan Wusu Airport

Report is more than 6 hours old.

Retrieved 2022/09/17 19:00 UTC (9 days ago):

ZBYN 171900Z 10001MPS CAVOK 15/12 Q1014 NOSIG

Aviation forecast (TAF) for Taiyuan Wusu Airport

Forecast is more than 12 hours old.

Retrieved 2022/09/01 06:03 UTC (26 days ago):

TAF ZBYN 010301Z 0106/0206 09004MPS 6000 NSC TX29/0107Z TN13/0121Z